Time;durP1;ratioP1;P1;durP2;ratioP2;P2;SDS_P1;SDS_P2;PMS_P1;PMS_P2;Temp;Humidity;BMP_temperature;BMP_pressure;BME280_temperature;BME280_humidity;BME280_pressure;Samples;Min_cycle;Max_cycle;Signal;HPM_P1;HPM_P2
2022/11/27 00:00:30;;;;;;;1.83;1.75;;;;;;;5.73;97.01;101677.03;5065000;28;20457;-76
2022/11/27 00:02:55;;;;;;;1.52;1.42;;;;;;;5.77;97.27;101678.88;5063295;28;20048;-76
2022/11/27 00:05:21;;;;;;;0.55;0.55;;;;;;;5.79;96.51;101678.09;5064756;28;20021;-77
2022/11/27 00:07:46;;;;;;;0.50;0.50;;;;;;;5.71;96.80;101676.97;5064524;28;20063;-77
2022/11/27 00:10:11;;;;;;;0.50;0.50;;;;;;;5.75;96.82;101688.28;5064974;28;20048;-77
2022/11/27 00:12:37;;;;;;;0.50;0.50;;;;;;;5.73;97.24;101701.09;5064646;28;20021;-77
2022/11/27 00:15:02;;;;;;;3.65;3.35;;;;;;;5.74;97.46;101694.22;5064578;28;20446;-76
2022/11/27 00:17:28;;;;;;;2.92;2.80;;;;;;;5.79;96.81;101695.25;5064888;28;20055;-77
2022/11/27 00:19:54;;;;;;;3.58;3.38;;;;;;;5.79;96.97;101683.25;5064620;28;20048;-76
2022/11/27 00:22:19;;;;;;;0.60;0.60;;;;;;;5.84;96.74;101680.84;5064415;28;20060;-76
2022/11/27 00:24:44;;;;;;;1.23;1.17;;;;;;;5.79;96.06;101670.38;5064608;28;20070;-76
2022/11/27 00:27:10;;;;;;;1.40;1.30;;;;;;;5.83;96.38;101686.81;5063206;28;20111;-76
2022/11/27 00:29:35;;;;;;;0.50;0.50;;;;;;;5.67;96.73;101673.41;5064492;28;20017;-76
2022/11/27 00:32:01;;;;;;;2.05;1.95;;;;;;;5.67;97.08;101678.56;5064704;28;20040;-76
2022/11/27 00:34:26;;;;;;;0.93;0.93;;;;;;;5.78;96.90;101694.38;5064414;28;20028;-76
2022/11/27 00:36:52;;;;;;;0.50;0.50;;;;;;;5.78;96.75;101690.94;5064321;28;20025;-76
2022/11/27 00:39:17;;;;;;;3.53;2.25;;;;;;;5.68;97.46;101693.22;5063212;28;20028;-76
2022/11/27 00:41:43;;;;;;;0.55;0.55;;;;;;;5.79;97.66;101687.53;5064513;28;20028;-76
2022/11/27 00:44:11;;;;;;;0.60;0.60;;;;;;;5.78;97.66;101696.09;5063263;28;20021;-76
2022/11/27 00:46:36;;;;;;;1.15;1.10;;;;;;;5.80;97.67;101700.47;5064486;28;20027;-76
2022/11/27 00:49:05;;;;;;;0.50;0.50;;;;;;;5.78;97.95;101696.09;5064498;28;20052;-75
2022/11/27 00:51:31;;;;;;;0.40;0.40;;;;;;;5.81;97.59;101673.00;5064127;28;20035;-74
2022/11/27 00:53:56;;;;;;;1.00;1.00;;;;;;;5.95;96.51;101682.06;5064551;28;20048;-76
2022/11/27 00:56:30;;;;;;;2.28;2.17;;;;;;;5.91;96.29;101687.91;5064421;28;20017;-76
2022/11/27 00:58:57;;;;;;;0.60;0.60;;;;;;;5.86;96.11;101681.75;5064483;28;20063;-76
2022/11/27 01:01:26;;;;;;;0.93;0.93;;;;;;;5.82;96.44;101687.63;5064227;28;20037;-76
2022/11/27 01:03:51;;;;;;;1.10;1.10;;;;;;;5.81;96.51;101685.88;5064040;28;20044;-75
2022/11/27 01:06:18;;;;;;;0.50;0.50;;;;;;;5.76;96.59;101698.63;5064189;28;20043;-76
2022/11/27 01:08:44;;;;;;;0.77;0.77;;;;;;;5.79;96.56;101690.13;5064097;28;20021;-76
2022/11/27 01:11:21;;;;;;;0.50;0.50;;;;;;;5.70;97.23;101678.66;5064022;28;20032;-75
2022/11/27 01:13:47;;;;;;;0.50;0.50;;;;;;;5.80;96.74;101684.13;5063952;28;20025;-75
2022/11/27 01:16:16;;;;;;;0.52;0.52;;;;;;;5.72;97.01;101675.28;5062910;28;20135;-76
2022/11/27 01:18:43;;;;;;;1.58;1.48;;;;;;;5.78;96.48;101681.50;5064330;28;20025;-75
2022/11/27 01:21:10;;;;;;;7.32;3.25;;;;;;;5.64;97.07;101673.31;5063987;28;20036;-76
2022/11/27 01:23:36;;;;;;;0.50;0.50;;;;;;;5.69;96.97;101682.09;5064021;28;20033;-76
2022/11/27 01:26:03;;;;;;;0.90;0.90;;;;;;;5.68;96.85;101682.91;5064610;28;20092;-77
2022/11/27 01:28:30;;;;;;;0.50;0.50;;;;;;;5.69;96.90;101676.94;5067891;28;20021;-76
2022/11/27 01:30:56;;;;;;;0.50;0.50;;;;;;;5.65;97.04;101672.53;5067806;28;20025;-76
2022/11/27 01:33:21;;;;;;;9.20;5.07;;;;;;;5.66;97.15;101674.25;5065806;28;20035;-76
2022/11/27 01:36:00;;;;;;;1.13;1.13;;;;;;;5.69;97.15;101670.91;5066698;28;20059;-75
2022/11/27 01:38:26;;;;;;;0.60;0.60;;;;;;;5.71;96.72;101658.94;5066810;28;20021;-77
2022/11/27 01:41:00;;;;;;;0.50;0.50;;;;;;;5.70;96.67;101654.63;5067514;28;20017;-75
2022/11/27 01:43:41;;;;;;;0.50;0.50;;;;;;;5.70;96.39;101668.38;5067423;28;20021;-75
2022/11/27 01:46:26;;;;;;;0.98;0.98;;;;;;;5.72;96.49;101647.81;5068185;28;20052;-76
2022/11/27 01:48:54;;;;;;;0.50;0.50;;;;;;;5.73;96.08;101641.84;5067786;28;20083;-76
2022/11/27 01:51:21;;;;;;;0.50;0.50;;;;;;;5.67;96.54;101646.81;5067917;28;20032;-76
2022/11/27 01:53:47;;;;;;;2.63;2.53;;;;;;;5.68;96.74;101644.28;5067189;28;20032;-75
2022/11/27 01:56:13;;;;;;;0.98;0.98;;;;;;;5.65;96.93;101639.03;5065989;28;20025;-76
2022/11/27 01:58:39;;;;;;;0.90;0.90;;;;;;;5.61;97.34;101644.88;5067270;28;20039;-75
2022/11/27 02:01:05;;;;;;;0.40;0.40;;;;;;;5.74;96.45;101642.69;5067028;28;20021;-75
2022/11/27 02:03:31;;;;;;;0.60;0.60;;;;;;;5.70;97.05;101628.88;5065583;28;20499;-75
2022/11/27 02:05:56;;;;;;;1.25;1.25;;;;;;;5.61;97.01;101631.16;5066784;28;20031;-75
2022/11/27 02:08:22;;;;;;;0.50;0.50;;;;;;;5.85;95.48;101622.44;5066889;28;20104;-74
2022/11/27 02:11:11;;;;;;;0.70;0.70;;;;;;;5.78;95.95;101605.91;5067080;28;20032;-73
2022/11/27 02:13:53;;;;;;;0.50;0.50;;;;;;;5.65;96.42;101605.53;5066887;28;20500;-74
2022/11/27 02:16:43;;;;;;;0.50;0.50;;;;;;;5.60;97.18;101593.31;5066917;28;20039;-74
2022/11/27 02:19:34;;;;;;;0.70;0.70;;;;;;;5.81;96.39;101580.22;5066847;28;20108;-73
2022/11/27 02:22:23;;;;;;;0.50;0.50;;;;;;;5.75;96.29;101582.63;5066437;28;20029;-73
2022/11/27 02:24:57;;;;;;;0.50;0.50;;;;;;;5.71;96.34;101571.34;5055502;28;20048;-74
2022/11/27 02:27:32;;;;;;;0.50;0.50;;;;;;;5.66;96.49;101571.19;5065386;28;20416;-73
2022/11/27 02:30:01;;;;;;;0.50;0.50;;;;;;;5.59;97.11;101574.44;5066463;28;20380;-73
2022/11/27 02:32:49;;;;;;;0.57;0.57;;;;;;;5.52;97.37;101585.34;5066570;28;20020;-74
2022/11/27 02:35:29;;;;;;;0.50;0.50;;;;;;;5.62;96.92;101591.66;5066373;28;20100;-75
2022/11/27 02:38:16;;;;;;;0.60;0.60;;;;;;;5.55;97.47;101569.97;5065964;28;20032;-74
2022/11/27 02:40:54;;;;;;;0.55;0.55;;;;;;;5.68;97.01;101572.13;5064891;28;20146;-73
2022/11/27 02:43:34;;;;;;;0.52;0.52;;;;;;;5.70;96.39;101570.44;5065086;28;20372;-73
2022/11/27 02:46:04;;;;;;;0.73;0.73;;;;;;;5.49;96.99;101555.22;5066189;28;20021;-72
2022/11/27 02:48:34;;;;;;;0.52;0.52;;;;;;;5.51;97.33;101561.28;5066338;28;20021;-73
2022/11/27 02:51:01;;;;;;;0.63;0.63;;;;;;;5.42;97.93;101567.03;5066086;28;20037;-74
2022/11/27 02:53:36;;;;;;;0.50;0.50;;;;;;;5.69;97.08;101560.97;5065807;28;20016;-73
2022/11/27 02:56:06;;;;;;;0.70;0.70;;;;;;;5.69;96.09;101558.41;5065984;28;20020;-72
2022/11/27 02:58:34;;;;;;;0.50;0.50;;;;;;;5.52;96.60;101557.91;5065936;28;20036;-73
2022/11/27 03:01:01;;;;;;;0.63;0.63;;;;;;;5.75;96.15;101562.84;5065917;28;20028;-72
2022/11/27 03:03:33;;;;;;;0.50;0.50;;;;;;;5.60;95.99;101567.53;5065560;28;20052;-74
2022/11/27 03:06:01;;;;;;;;;;;;;;;5.68;96.37;101561.81;5066143;28;20056;-73
2022/11/27 03:08:36;;;;;;;0.50;0.50;;;;;;;5.35;97.21;101554.78;5065941;28;20004;-75
2022/11/27 03:11:11;;;;;;;0.50;0.50;;;;;;;5.46;97.72;101566.28;5064444;28;20028;-73
2022/11/27 03:13:41;;;;;;;0.50;0.50;;;;;;;5.42;97.84;101572.19;5065608;28;20024;-73
2022/11/27 03:16:21;;;;;;;0.50;0.50;;;;;;;5.43;98.36;101581.66;5065634;28;20020;-73
2022/11/27 03:19:28;;;;;;;0.50;0.50;;;;;;;5.46;97.60;101588.63;5065678;28;20117;-73
2022/11/27 03:22:01;;;;;;;0.70;0.70;;;;;;;5.38;98.59;101595.22;5043065;28;20025;-73
2022/11/27 03:24:28;;;;;;;0.52;0.52;;;;;;;5.38;99.00;101603.81;5042892;28;20063;-74
2022/11/27 03:26:56;;;;;;;0.50;0.50;;;;;;;5.44;99.02;101616.00;5042551;28;20029;-73
2022/11/27 03:29:28;;;;;;;0.63;0.63;;;;;;;5.45;99.30;101602.28;5041920;28;20159;-74
2022/11/27 03:31:55;;;;;;;0.50;0.50;;;;;;;5.49;99.17;101592.97;5042699;28;20510;-76
2022/11/27 03:34:20;;;;;;;0.40;0.40;;;;;;;5.53;98.94;101598.28;5043014;28;20048;-74
2022/11/27 03:36:46;;;;;;;0.60;0.60;;;;;;;5.56;98.72;101595.78;5042717;28;20452;-72
2022/11/27 03:39:12;;;;;;;0.50;0.50;;;;;;;5.53;98.39;101587.09;5043253;28;20036;-74
2022/11/27 03:41:59;;;;;;;0.50;0.50;;;;;;;5.59;97.93;101597.59;5042850;28;20033;-74
2022/11/27 03:44:47;;;;;;;1.08;1.08;;;;;;;5.56;98.18;101600.06;5043115;28;20040;-74
2022/11/27 03:47:24;;;;;;;0.50;0.50;;;;;;;5.53;98.18;101594.81;5042774;28;20033;-74
2022/11/27 03:50:17;;;;;;;0.50;0.50;;;;;;;5.52;98.21;101599.09;5042196;28;20037;-74
2022/11/27 03:52:58;;;;;;;0.50;0.50;;;;;;;5.51;98.23;101593.91;5042433;28;20057;-74
2022/11/27 03:55:46;;;;;;;0.50;0.50;;;;;;;5.50;98.28;101597.28;5050540;28;20044;-74
2022/11/27 03:58:22;;;;;;;0.50;0.50;;;;;;;5.49;98.26;101590.41;5065160;28;20138;-73
2022/11/27 04:00:50;;;;;;;1.98;1.23;;;;;;;5.49;98.50;101583.56;5064808;28;20032;-73
2022/11/27 04:03:23;;;;;;;0.50;0.50;;;;;;;5.53;98.22;101571.63;5064646;28;20060;-73
2022/11/27 04:05:49;;;;;;;0.50;0.50;;;;;;;5.57;97.95;101573.50;5064859;28;20029;-73
2022/11/27 04:08:14;;;;;;;0.60;0.60;;;;;;;5.50;97.90;101566.38;5064738;28;20036;-73
2022/11/27 04:10:39;;;;;;;0.60;0.60;;;;;;;5.54;97.79;101578.53;5064905;28;20025;-73
2022/11/27 04:13:04;;;;;;;0.43;0.43;;;;;;;5.58;97.42;101570.06;5064764;28;20017;-73
2022/11/27 04:15:30;;;;;;;0.90;0.90;;;;;;;5.51;97.29;101568.16;5064560;28;20028;-73
2022/11/27 04:17:55;;;;;;;0.82;0.82;;;;;;;5.45;97.21;101566.22;5064876;28;20047;-74
2022/11/27 04:20:20;;;;;;;0.50;0.50;;;;;;;5.45;98.21;101571.38;5064746;28;20060;-73
2022/11/27 04:22:46;;;;;;;0.88;0.88;;;;;;;5.48;98.00;101568.91;5064676;28;20036;-73
2022/11/27 04:25:11;;;;;;;0.50;0.50;;;;;;;5.44;98.07;101569.66;5064811;28;20054;-72
2022/11/27 04:27:36;;;;;;;0.50;0.50;;;;;;;5.46;98.15;101570.59;5064642;28;20017;-72
2022/11/27 04:30:03;;;;;;;0.60;0.60;;;;;;;5.49;98.22;101580.09;5064707;28;20055;-72
2022/11/27 04:32:28;;;;;;;0.40;0.40;;;;;;;5.45;98.41;101582.56;5064528;28;20045;-72
2022/11/27 04:34:53;;;;;;;0.93;0.93;;;;;;;5.46;98.00;101581.75;5064726;28;20029;-73
2022/11/27 04:37:19;;;;;;;0.50;0.50;;;;;;;5.44;98.34;101583.41;5064382;28;20048;-73
2022/11/27 04:39:44;;;;;;;0.50;0.50;;;;;;;5.44;98.52;101574.81;5064503;28;20021;-71
2022/11/27 04:42:09;;;;;;;1.65;1.05;;;;;;;5.48;98.11;101586.94;5064361;28;20029;-71
2022/11/27 04:44:35;;;;;;;0.50;0.50;;;;;;;5.51;97.97;101583.59;5064829;28;20041;-71
2022/11/27 04:47:01;;;;;;;0.50;0.50;;;;;;;5.45;98.25;101574.84;5064570;28;20032;-72
2022/11/27 04:49:26;;;;;;;0.50;0.50;;;;;;;5.43;98.31;101565.34;5064723;28;20021;-72
2022/11/27 04:51:52;;;;;;;0.50;0.50;;;;;;;5.49;98.33;101572.38;5062987;28;20044;-71
2022/11/27 04:54:17;;;;;;;0.75;0.75;;;;;;;5.58;97.93;101575.22;5064782;28;20029;-73
2022/11/27 04:56:42;;;;;;;0.60;0.60;;;;;;;5.49;97.99;101564.63;5064526;28;20040;-73
2022/11/27 04:59:07;;;;;;;0.60;0.60;;;;;;;5.54;97.39;101563.94;5064544;28;20080;-72
2022/11/27 05:01:33;;;;;;;0.73;0.73;;;;;;;5.65;96.52;101563.41;5065734;28;20053;-72
2022/11/27 05:03:58;;;;;;;0.50;0.50;;;;;;;5.57;96.98;101552.88;5068129;28;20037;-72
2022/11/27 05:06:23;;;;;;;0.50;0.50;;;;;;;5.53;97.52;101551.91;5068299;28;20032;-73
2022/11/27 05:08:49;;;;;;;2.65;2.45;;;;;;;5.66;96.42;101547.13;5068200;28;20539;-73
2022/11/27 05:11:16;;;;;;;0.50;0.50;;;;;;;5.50;97.38;101550.94;5068095;28;20025;-71
2022/11/27 05:13:42;;;;;;;0.50;0.50;;;;;;;5.51;97.39;101557.84;5068324;28;20021;-73
2022/11/27 05:16:07;;;;;;;0.55;0.55;;;;;;;5.48;97.62;101557.75;5068017;28;20083;-73
2022/11/27 05:18:33;;;;;;;0.60;0.60;;;;;;;5.49;97.34;101542.34;5068120;28;20094;-73
2022/11/27 05:21:01;;;;;;;0.50;0.50;;;;;;;5.58;96.84;101536.59;5067879;28;20040;-73
2022/11/27 05:23:27;;;;;;;0.50;0.50;;;;;;;5.46;97.47;101549.97;5067920;28;20025;-73
2022/11/27 05:25:53;;;;;;;0.50;0.50;;;;;;;5.51;97.24;101550.97;5067923;28;20025;-74
2022/11/27 05:28:19;;;;;;;0.50;0.50;;;;;;;5.56;96.60;101543.38;5067771;28;20032;-73
2022/11/27 05:30:45;;;;;;;0.50;0.50;;;;;;;5.53;96.95;101545.88;5067767;28;20029;-73
2022/11/27 05:33:11;;;;;;;0.50;0.50;;;;;;;5.68;95.89;101543.78;5067665;28;20059;-73
2022/11/27 05:35:36;;;;;;;0.50;0.50;;;;;;;5.59;95.99;101538.34;5067485;28;20050;-74
2022/11/27 05:38:02;;;;;;;0.50;0.50;;;;;;;5.55;96.71;101546.78;5067542;28;20159;-74
2022/11/27 05:40:27;;;;;;;0.50;0.50;;;;;;;5.58;95.84;101532.31;5067819;28;20021;-74
2022/11/27 05:42:52;;;;;;;0.40;0.40;;;;;;;5.52;96.56;101537.28;5067455;28;20096;-75
2022/11/27 05:45:18;;;;;;;0.50;0.50;;;;;;;5.42;97.45;101542.97;5067878;28;20035;-74
2022/11/27 05:47:43;;;;;;;0.50;0.50;;;;;;;5.52;97.19;101545.00;5067534;28;20052;-74
2022/11/27 05:50:08;;;;;;;0.50;0.50;;;;;;;5.50;97.41;101543.19;5067314;28;20076;-74
2022/11/27 05:52:34;;;;;;;0.50;0.50;;;;;;;5.53;97.13;101543.28;5067098;28;20016;-74
2022/11/27 05:54:59;;;;;;;0.50;0.50;;;;;;;5.62;96.91;101543.59;5067238;28;20092;-74
2022/11/27 05:57:25;;;;;;;1.38;1.35;;;;;;;5.65;96.32;101535.97;5067383;28;20021;-74
2022/11/27 05:59:50;;;;;;;0.50;0.50;;;;;;;5.52;96.44;101519.25;5067215;28;20532;-74
2022/11/27 06:02:16;;;;;;;0.50;0.50;;;;;;;5.46;97.07;101519.91;5067064;28;20041;-74
2022/11/27 06:04:41;;;;;;;0.50;0.50;;;;;;;5.77;95.20;101519.09;5067275;28;20033;-73
2022/11/27 06:07:06;;;;;;;0.50;0.50;;;;;;;5.62;95.74;101511.78;5067034;28;20021;-73
2022/11/27 06:09:32;;;;;;;0.43;0.43;;;;;;;5.65;95.42;101511.88;5067280;28;20056;-74
2022/11/27 06:11:57;;;;;;;0.80;0.80;;;;;;;5.78;94.42;101505.41;5066564;28;20028;-74
2022/11/27 06:14:23;;;;;;;7.50;2.80;;;;;;;5.61;95.25;101518.66;5067098;28;20025;-75
2022/11/27 06:16:48;;;;;;;0.50;0.50;;;;;;;5.56;96.18;101521.09;5067132;28;20036;-74
2022/11/27 06:19:14;;;;;;;0.50;0.50;;;;;;;5.64;95.58;101529.03;5067135;28;20071;-75
2022/11/27 06:21:39;;;;;;;0.50;0.50;;;;;;;5.79;94.93;101525.19;5067082;28;20032;-73
2022/11/27 06:24:05;;;;;;;0.50;0.50;;;;;;;5.77;94.32;101526.81;5066683;28;20100;-75
2022/11/27 06:26:31;;;;;;;0.50;0.50;;;;;;;5.67;94.79;101516.25;5066720;28;20036;-74
2022/11/27 06:28:59;;;;;;;0.60;0.60;;;;;;;5.62;95.26;101525.56;5066865;28;20024;-75
2022/11/27 06:31:27;;;;;;;0.50;0.50;;;;;;;5.65;95.21;101537.66;5066493;28;20384;-74
2022/11/27 06:33:54;;;;;;;0.40;0.40;;;;;;;5.79;94.29;101530.34;5066502;28;20029;-73
2022/11/27 06:36:20;;;;;;;0.50;0.50;;;;;;;5.62;95.39;101533.28;5066788;28;20032;-74
2022/11/27 06:38:46;;;;;;;0.50;0.50;;;;;;;5.68;94.76;101538.63;5066494;28;20051;-73
2022/11/27 06:41:14;;;;;;;0.50;0.50;;;;;;;5.69;94.25;101537.78;5066715;28;20025;-73
2022/11/27 06:43:40;;;;;;;0.50;0.50;;;;;;;5.55;94.79;101524.50;5066449;28;20481;-72
2022/11/27 06:46:08;;;;;;;0.50;0.50;;;;;;;5.49;95.23;101524.31;5066293;28;20029;-71
2022/11/27 06:48:34;;;;;;;0.40;0.40;;;;;;;5.41;96.23;101531.81;5064956;28;20047;-73
2022/11/27 06:51:01;;;;;;;0.50;0.50;;;;;;;5.61;94.85;101528.94;5066224;28;20553;-71
2022/11/27 06:53:27;;;;;;;0.52;0.52;;;;;;;5.50;95.44;101532.91;5066170;28;20080;-71
2022/11/27 06:55:52;;;;;;;0.50;0.50;;;;;;;5.46;95.37;101532.78;5065857;28;20032;-71
2022/11/27 06:58:17;;;;;;;1.00;0.93;;;;;;;5.55;94.18;101526.19;5065992;28;20029;-70
2022/11/27 07:00:43;;;;;;;0.50;0.50;;;;;;;5.42;95.27;101530.97;5065925;28;20033;-71
2022/11/27 07:03:08;;;;;;;0.50;0.50;;;;;;;5.50;94.91;101520.00;5065652;28;20045;-71
2022/11/27 07:05:35;;;;;;;0.50;0.50;;;;;;;5.58;94.31;101519.44;5065814;28;20028;-71
2022/11/27 07:08:00;;;;;;;0.50;0.50;;;;;;;5.54;94.07;101517.56;5065684;28;20021;-70
2022/11/27 07:10:26;;;;;;;0.55;0.55;;;;;;;5.55;93.60;101528.75;5066106;28;20417;-69
2022/11/27 07:12:51;;;;;;;0.40;0.40;;;;;;;5.58;93.07;101518.56;5065734;28;20492;-67
2022/11/27 07:15:16;;;;;;;0.50;0.50;;;;;;;5.64;92.61;101523.88;5065836;28;20465;-70
2022/11/27 07:17:42;;;;;;;0.95;0.95;;;;;;;5.50;92.99;101522.59;5064298;28;20097;-69
2022/11/27 07:20:07;;;;;;;0.50;0.50;;;;;;;5.45;92.93;101509.56;5065888;28;20017;-69
2022/11/27 07:22:33;;;;;;;0.50;0.50;;;;;;;5.51;92.62;101524.34;5065397;28;20024;-71
2022/11/27 07:24:58;;;;;;;0.50;0.50;;;;;;;5.40;93.80;101524.03;5064914;28;20369;-70
2022/11/27 07:27:25;;;;;;;0.50;0.50;;;;;;;5.42;93.95;101533.53;5064705;28;20055;-70
2022/11/27 07:29:50;;;;;;;1.95;1.85;;;;;;;5.42;93.72;101530.09;5063300;28;20024;-67
2022/11/27 07:32:16;;;;;;;0.50;0.50;;;;;;;5.48;93.50;101534.56;5064739;28;20021;-68
2022/11/27 07:34:41;;;;;;;0.50;0.50;;;;;;;5.49;92.82;101516.59;5065511;28;20021;-68
2022/11/27 07:37:06;;;;;;;0.50;0.50;;;;;;;5.49;93.09;101523.44;5065062;28;20025;-68
2022/11/27 07:39:32;;;;;;;3.95;2.53;;;;;;;5.47;92.94;101528.53;5064083;28;20441;-68
2022/11/27 07:41:58;;;;;;;0.50;0.50;;;;;;;5.56;93.14;101530.50;5065301;28;20031;-68
2022/11/27 07:44:23;;;;;;;0.50;0.50;;;;;;;5.43;93.17;101540.44;5065426;28;20073;-69
2022/11/27 07:46:48;;;;;;;0.50;0.50;;;;;;;5.50;92.86;101527.75;5065140;28;20028;-69
2022/11/27 07:49:14;;;;;;;0.60;0.60;;;;;;;5.36;93.77;101541.09;5065255;28;20017;-69
2022/11/27 07:51:39;;;;;;;0.50;0.50;;;;;;;5.43;93.77;101537.84;5063647;28;20056;-69
2022/11/27 07:54:04;;;;;;;0.50;0.50;;;;;;;5.50;93.03;101543.19;5064885;28;20036;-69
2022/11/27 07:56:30;;;;;;;0.50;0.50;;;;;;;5.44;92.98;101528.44;5065195;28;20036;-69
2022/11/27 07:58:56;;;;;;;0.50;0.50;;;;;;;5.38;93.88;101544.59;5064888;28;20029;-70
2022/11/27 08:01:22;;;;;;;0.50;0.50;;;;;;;5.37;93.75;101532.50;5065180;28;20404;-69
2022/11/27 08:03:48;;;;;;;0.60;0.60;;;;;;;5.44;93.97;101539.63;5064746;28;20052;-69
2022/11/27 08:06:20;;;;;;;0.57;0.57;;;;;;;5.41;94.01;101525.78;5064699;28;20032;-70
2022/11/27 08:08:45;;;;;;;1.13;1.13;;;;;;;5.46;93.67;101530.22;5064545;28;20032;-70
2022/11/27 08:11:22;;;;;;;0.50;0.50;;;;;;;5.45;93.87;101531.06;5064655;28;20025;-70
2022/11/27 08:13:48;;;;;;;0.45;0.45;;;;;;;5.49;93.23;101534.63;5064950;28;20021;-70
2022/11/27 08:16:14;;;;;;;0.50;0.50;;;;;;;5.40;93.65;101530.03;5064631;28;20048;-69
2022/11/27 08:18:39;;;;;;;0.77;0.77;;;;;;;5.43;93.95;101537.84;5065018;28;20028;-70
2022/11/27 08:21:05;;;;;;;0.60;0.60;;;;;;;5.42;93.90;101533.53;5064704;28;20055;-69
2022/11/27 08:23:30;;;;;;;0.55;0.55;;;;;;;5.39;94.25;101532.56;5064595;28;20025;-70
2022/11/27 08:25:56;;;;;;;0.50;0.50;;;;;;;5.53;93.88;101530.41;5064751;28;20047;-67
2022/11/27 08:28:21;;;;;;;0.50;0.50;;;;;;;5.43;93.84;101535.28;5063377;28;20052;-68
2022/11/27 08:30:57;;;;;;;0.52;0.52;;;;;;;5.43;94.14;101537.00;5063422;28;20021;-68
2022/11/27 08:33:22;;;;;;;0.50;0.50;;;;;;;5.50;94.08;101523.47;5064729;28;20028;-68
2022/11/27 08:35:49;;;;;;;1.02;0.98;;;;;;;5.46;93.43;101540.53;5066205;28;20086;-68
2022/11/27 08:38:14;;;;;;;0.50;0.50;;;;;;;5.41;93.94;101539.53;5068599;28;20453;-69
2022/11/27 08:40:39;;;;;;;0.60;0.60;;;;;;;5.48;93.48;101524.28;5068617;28;20101;-69
2022/11/27 08:43:05;;;;;;;0.50;0.50;;;;;;;5.53;93.43;101523.56;5068293;28;20070;-69
2022/11/27 08:45:31;;;;;;;0.60;0.60;;;;;;;5.39;94.10;101530.00;5068692;28;20104;-71
2022/11/27 08:47:57;;;;;;;0.60;0.60;;;;;;;5.49;94.27;101518.28;5068540;28;20027;-69
2022/11/27 08:50:23;;;;;;;0.60;0.60;;;;;;;5.41;94.12;101505.16;5068516;28;20088;-69
2022/11/27 08:52:48;;;;;;;0.50;0.50;;;;;;;5.30;95.22;101507.41;5068294;28;20049;-71
2022/11/27 08:55:13;;;;;;;0.90;0.90;;;;;;;5.33;95.24;101499.78;5068440;28;20084;-72
2022/11/27 08:57:39;;;;;;;0.60;0.60;;;;;;;5.42;95.03;101496.59;5068160;28;20453;-72
2022/11/27 09:00:05;;;;;;;0.50;0.50;;;;;;;5.55;94.26;101497.84;5066897;28;20047;-71
2022/11/27 09:02:32;;;;;;;0.50;0.50;;;;;;;5.49;94.59;101498.56;5066357;28;20049;-71
2022/11/27 09:04:57;;;;;;;0.50;0.50;;;;;;;5.53;94.45;101490.09;5068039;28;20495;-71
2022/11/27 09:07:23;;;;;;;0.40;0.40;;;;;;;5.43;95.07;101494.06;5067835;28;20025;-70
2022/11/27 09:09:48;;;;;;;1.02;1.02;;;;;;;5.75;92.91;101495.00;5068377;28;20029;-70
2022/11/27 09:12:13;;;;;;;0.50;0.50;;;;;;;5.46;94.18;101489.00;5067621;28;20035;-70
2022/11/27 09:14:39;;;;;;;0.50;0.50;;;;;;;5.42;94.96;101491.44;5068111;28;20037;-71
2022/11/27 09:17:04;;;;;;;0.50;0.50;;;;;;;5.41;95.01;101488.03;5067919;28;20039;-71
2022/11/27 09:19:29;;;;;;;0.50;0.50;;;;;;;5.37;95.27;101499.03;5068077;28;20021;-70
2022/11/27 09:21:55;;;;;;;0.50;0.50;;;;;;;5.46;95.55;101501.03;5067819;28;20017;-70
2022/11/27 09:24:20;;;;;;;0.50;0.50;;;;;;;5.43;95.51;101495.78;5068001;28;20109;-69
2022/11/27 09:26:45;;;;;;;0.50;0.50;;;;;;;5.44;95.91;101484.66;5067962;28;20025;-70
2022/11/27 09:29:11;;;;;;;0.50;0.50;;;;;;;5.55;94.69;101475.56;5068006;28;20033;-70
2022/11/27 09:31:36;;;;;;;0.50;0.50;;;;;;;5.48;94.70;101472.75;5067791;28;20021;-71
2022/11/27 09:34:03;;;;;;;0.50;0.50;;;;;;;5.46;95.36;101480.44;5067795;28;20088;-70
2022/11/27 09:36:28;;;;;;;0.57;0.57;;;;;;;5.51;94.88;101490.88;5067512;28;20049;-71
2022/11/27 09:38:54;;;;;;;0.50;0.50;;;;;;;5.61;94.40;101476.56;5066232;28;20036;-70
2022/11/27 09:41:37;;;;;;;0.50;0.50;;;;;;;5.59;94.41;101471.38;5067621;28;20025;-71
2022/11/27 09:44:26;;;;;;;0.50;0.50;;;;;;;5.51;94.68;101470.25;5067470;28;20063;-72
2022/11/27 09:46:53;;;;;;;0.70;0.70;;;;;;;5.47;95.03;101474.44;5054959;28;20037;-70
2022/11/27 09:49:32;;;;;;;0.50;0.50;;;;;;;5.46;95.28;101467.56;5067554;28;20094;-69
2022/11/27 09:52:03;;;;;;;0.50;0.50;;;;;;;5.63;94.22;101469.75;5067259;28;20021;-69
2022/11/27 09:54:37;;;;;;;0.50;0.50;;;;;;;5.70;93.77;101457.06;5067224;28;20020;-70
2022/11/27 09:57:04;;;;;;;0.80;0.80;;;;;;;5.69;94.17;101463.06;5067296;28;20020;-70
2022/11/27 09:59:39;;;;;;;0.50;0.50;;;;;;;5.64;93.91;101456.91;5066780;28;20035;-70
2022/11/27 10:02:16;;;;;;;0.50;0.50;;;;;;;5.48;95.09;101449.56;5065615;28;20505;-67
2022/11/27 10:04:41;;;;;;;0.52;0.52;;;;;;;5.62;94.41;101448.28;5066041;28;20511;-69
2022/11/27 10:07:12;;;;;;;0.40;0.40;;;;;;;5.62;94.19;101440.56;5066283;28;20066;-71
2022/11/27 10:10:11;;;;;;;0.50;0.50;;;;;;;5.46;95.16;101441.81;5067201;28;20021;-71
2022/11/27 10:12:36;;;;;;;0.43;0.43;;;;;;;5.56;94.99;101440.34;5058359;28;20033;-74
2022/11/27 10:15:42;;;;;;;0.50;0.50;;;;;;;5.59;95.05;101432.72;5065843;28;20024;-72
2022/11/27 10:18:17;;;;;;;0.55;0.55;;;;;;;5.84;94.21;101430.84;5060563;28;20385;-73
2022/11/27 10:20:47;;;;;;;0.50;0.50;;;;;;;5.78;94.02;101433.25;5065526;28;20048;-72
2022/11/27 10:23:40;;;;;;;0.50;0.50;;;;;;;5.61;94.54;101425.91;5066634;28;20067;-71
2022/11/27 10:26:23;;;;;;;0.50;0.50;;;;;;;5.65;94.63;101416.56;5067003;28;20029;-70
2022/11/27 10:29:02;;;;;;;0.50;0.50;;;;;;;5.61;94.53;101417.31;5066838;28;20060;-71
2022/11/27 10:31:52;;;;;;;0.50;0.50;;;;;;;5.68;93.98;101411.50;5066536;28;20020;-69
2022/11/27 10:34:36;;;;;;;0.50;0.50;;;;;;;5.66;93.98;101423.44;5065449;28;20017;-70
2022/11/27 10:37:11;;;;;;;0.40;0.40;;;;;;;5.60;94.15;101420.69;5066601;28;20091;-70
2022/11/27 10:39:40;;;;;;;0.50;0.50;;;;;;;5.65;94.88;101421.72;5066353;28;20025;-71
2022/11/27 10:42:16;;;;;;;0.50;0.50;;;;;;;5.58;94.96;101418.09;5066456;28;20021;-71
2022/11/27 10:44:48;;;;;;;1.58;1.08;;;;;;;5.53;95.63;101417.06;5066567;28;20021;-70
2022/11/27 10:47:14;;;;;;;0.90;0.90;;;;;;;5.62;94.89;101412.22;5066364;28;20032;-71
2022/11/27 10:49:41;;;;;;;0.60;0.60;;;;;;;5.75;94.29;101422.84;5066347;28;20522;-71
2022/11/27 10:52:15;;;;;;;0.80;0.80;;;;;;;5.69;94.47;101420.97;5066166;28;20044;-70
2022/11/27 10:54:42;;;;;;;0.50;0.50;;;;;;;5.67;94.42;101414.91;5066008;28;20055;-70
2022/11/27 10:57:25;;;;;;;0.63;0.63;;;;;;;5.65;95.36;101412.28;5066182;28;20025;-69
2022/11/27 11:00:24;;;;;;;0.93;0.93;;;;;;;5.71;94.02;101406.44;5064868;28;20638;-69
2022/11/27 11:03:03;;;;;;;0.68;0.68;;;;;;;5.69;94.79;101424.41;5064806;28;20142;-70
2022/11/27 11:05:30;;;;;;;0.50;0.50;;;;;;;5.77;94.05;101410.88;5066125;28;20021;-71
2022/11/27 11:08:15;;;;;;;1.50;1.40;;;;;;;5.72;94.22;101412.47;5065918;28;20029;-70
2022/11/27 11:10:55;;;;;;;0.50;0.50;;;;;;;5.76;94.85;101411.69;5066057;28;20017;-70
2022/11/27 11:13:26;;;;;;;0.50;0.50;;;;;;;5.71;94.79;101403.84;5065935;28;20104;-69
2022/11/27 11:16:02;;;;;;;3.80;2.28;;;;;;;5.66;95.46;101408.88;5066038;28;20032;-69
2022/11/27 11:18:42;;;;;;;0.50;0.50;;;;;;;5.91;93.56;101404.38;5065948;28;20033;-68
2022/11/27 11:21:41;;;;;;;0.50;0.50;;;;;;;5.87;94.70;101389.69;5065764;28;20519;-68
2022/11/27 11:24:18;;;;;;;1.50;1.50;;;;;;;5.95;93.47;101383.03;5065779;28;20039;-69
2022/11/27 11:26:48;;;;;;;0.50;0.50;;;;;;;5.75;93.90;101368.75;5064909;28;20025;-69
2022/11/27 11:29:36;;;;;;;0.60;0.60;;;;;;;6.08;92.70;101383.38;5064422;28;20036;-70
2022/11/27 11:32:09;;;;;;;0.50;0.50;;;;;;;5.97;93.21;101380.50;5064508;28;20040;-68
2022/11/27 11:34:35;;;;;;;0.50;0.50;;;;;;;5.86;93.87;101367.34;5064874;28;20017;-68
2022/11/27 11:37:07;;;;;;;0.73;0.73;;;;;;;5.86;94.14;101376.75;5065444;28;20021;-69
2022/11/27 11:39:44;;;;;;;0.50;0.50;;;;;;;5.90;94.11;101370.84;5065524;28;20068;-71
2022/11/27 11:42:19;;;;;;;0.50;0.50;;;;;;;5.88;94.62;101368.22;5065534;28;20025;-65
2022/11/27 11:44:54;;;;;;;0.50;0.50;;;;;;;5.94;93.92;101365.81;5065436;28;20029;-70